Terminal Aerodrome Forecast
Issued by NWS Omaha/Valley, NE

Home | Current Version | Previous Version | Text Only | Print | Product List | Glossary On
Versions: 1 2 3 4 5 6 7 8 9 10 11 12 13 14 15 16 17 18 19 20 21
000
FTUS43 KOAX 200520
TAFOMA
TAF
KOMA 200520Z 2006/2106 16018G26KT P6SM SCT250 WS020/18045KT
     FM201000 24010KT P6SM SCT150
     FM201100 33009KT P6SM SCT150=

USA.gov is the U.S. government's official web portal to all federal, state and local government web resources and services.